Time;durP1;ratioP1;P1;durP2;ratioP2;P2;SDS_P1;SDS_P2;PMS_P1;PMS_P2;Temp;Humidity;BMP_temperature;BMP_pressure;BME280_temperature;BME280_humidity;BME280_pressure;Samples;Min_cycle;Max_cycle;Signal;HPM_P1;HPM_P2
2023/06/10 00:01:55;;;;;;;9.40;8.60;;;;;;;19.09;68.57;100686.13;6028788;23;20035;-70
2023/06/10 00:04:21;;;;;;;9.15;8.43;;;;;;;18.74;68.52;100630.66;6004012;23;20031;-70
2023/06/10 00:06:49;;;;;;;8.88;8.18;;;;;;;19.05;68.74;100694.50;6033246;23;20022;-69
2023/06/10 00:09:15;;;;;;;8.52;7.93;;;;;;;18.38;68.83;100590.41;6028506;23;20026;-70
2023/06/10 00:11:42;;;;;;;8.50;7.90;;;;;;;18.97;69.46;100697.84;6058594;23;20841;-70
2023/06/10 00:14:08;;;;;;;9.25;8.45;;;;;;;18.80;69.62;100685.16;6005961;23;20027;-70
2023/06/10 00:16:36;;;;;;;10.13;9.10;;;;;;;18.84;70.11;100706.06;6004348;23;20025;-70
2023/06/10 00:19:04;;;;;;;8.90;8.02;;;;;;;18.81;70.58;100713.44;6057326;23;20101;-70
2023/06/10 00:21:37;;;;;;;10.07;8.55;;;;;;;18.69;71.61;100718.81;6029780;23;20044;-70
2023/06/10 00:24:05;;;;;;;9.20;8.45;;;;;;;18.63;72.28;100727.31;6029890;23;20130;-70
2023/06/10 00:26:32;;;;;;;9.20;8.38;;;;;;;18.56;72.42;100725.31;6029245;23;20011;-70
2023/06/10 00:28:59;;;;;;;9.40;8.40;;;;;;;18.22;72.46;100667.94;6029060;23;20094;-70
2023/06/10 00:31:30;;;;;;;13.23;8.07;;;;;;;18.23;72.81;100685.53;6027396;23;20900;-70
2023/06/10 00:33:56;;;;;;;9.18;8.45;;;;;;;17.99;73.80;100659.22;6056434;23;20542;-70
2023/06/10 00:36:23;;;;;;;9.13;8.30;;;;;;;18.32;73.47;100723.75;6029436;23;20014;-70
2023/06/10 00:38:49;;;;;;;8.98;8.18;;;;;;;17.88;73.80;100662.81;6025147;23;20443;-70
2023/06/10 00:41:16;;;;;;;10.48;9.57;;;;;;;17.76;74.15;100663.78;6051634;23;20043;-70
2023/06/10 00:43:42;;;;;;;9.50;8.80;;;;;;;18.19;75.19;100733.75;6028583;23;20015;-70
2023/06/10 00:46:09;;;;;;;9.35;8.57;;;;;;;18.11;75.04;100729.06;6057417;23;20018;-70
2023/06/10 00:48:36;;;;;;;8.93;8.10;;;;;;;18.09;75.68;100734.50;6029892;23;20023;-70
2023/06/10 00:51:05;;;;;;;13.05;9.40;;;;;;;17.87;76.21;100716.03;6056961;23;20775;-70
2023/06/10 00:53:32;;;;;;;9.75;8.32;;;;;;;17.83;76.44;100707.47;6028173;23;20022;-70
2023/06/10 00:55:59;;;;;;;9.27;8.38;;;;;;;17.99;76.50;100748.69;6028597;23;20019;-70
2023/06/10 00:58:26;;;;;;;9.80;8.90;;;;;;;17.64;77.20;100696.63;6025465;23;20027;-70
2023/06/10 01:00:53;;;;;;;9.82;8.10;;;;;;;17.48;77.32;100682.00;6050167;23;20033;-70
2023/06/10 01:03:19;;;;;;;9.57;7.80;;;;;;;17.81;78.58;100751.84;6032106;23;20038;-70
2023/06/10 01:05:58;;;;;;;8.80;8.05;;;;;;;17.79;78.72;100755.59;6027516;23;20193;-69
2023/06/10 01:08:32;;;;;;;9.43;8.55;;;;;;;17.74;79.20;100750.69;6025330;23;20042;-70
2023/06/10 01:11:01;;;;;;;10.15;8.98;;;;;;;16.86;79.00;100616.31;6055439;23;20038;-70
2023/06/10 01:13:29;;;;;;;8.95;8.05;;;;;;;17.64;78.91;100752.38;6028974;23;20026;-70
2023/06/10 01:15:56;;;;;;;9.38;8.48;;;;;;;17.62;79.28;100749.00;6028425;23;20674;-70
2023/06/10 01:18:23;;;;;;;9.38;7.95;;;;;;;17.20;79.87;100695.78;6028375;23;20025;-70
2023/06/10 01:20:49;;;;;;;9.90;8.98;;;;;;;17.52;80.14;100762.19;6053004;23;20066;-70
2023/06/10 01:23:17;;;;;;;8.73;7.90;;;;;;;17.38;80.80;100749.16;6027023;23;20038;-70
2023/06/10 01:25:59;;;;;;;8.50;7.80;;;;;;;17.46;81.34;100768.81;6056491;23;20437;-69
2023/06/10 01:28:38;;;;;;;9.20;8.23;;;;;;;17.43;81.46;100766.41;6027918;23;20130;-70
2023/06/10 01:31:33;;;;;;;8.60;7.95;;;;;;;17.43;81.37;100757.59;6054879;23;20033;-70
2023/06/10 01:34:04;;;;;;;9.52;8.63;;;;;;;17.36;81.64;100757.25;6024782;23;20022;-70
2023/06/10 01:36:33;;;;;;;9.90;8.90;;;;;;;17.33;81.21;100754.84;6054997;23;20014;-70
2023/06/10 01:39:00;;;;;;;9.38;8.40;;;;;;;17.28;81.24;100762.31;6024972;23;20533;-70
2023/06/10 01:41:28;;;;;;;9.32;8.52;;;;;;;17.22;82.27;100754.84;6004597;23;20096;-70
2023/06/10 01:43:55;;;;;;;9.38;8.48;;;;;;;17.13;82.57;100767.88;6052446;23;20091;-70
2023/06/10 01:46:21;;;;;;;9.82;8.82;;;;;;;16.71;82.99;100705.78;6000399;23;20042;-70
2023/06/10 01:48:48;;;;;;;11.50;9.40;;;;;;;16.99;83.42;100759.31;6027489;23;20030;-70
2023/06/10 01:51:15;;;;;;;9.80;8.82;;;;;;;16.63;84.96;100722.25;6054240;23;20034;-70
2023/06/10 01:53:41;;;;;;;9.98;9.02;;;;;;;16.90;85.09;100771.50;6026926;23;20045;-70
2023/06/10 01:56:10;;;;;;;10.15;9.10;;;;;;;16.57;86.24;100717.44;6053848;23;20030;-70
2023/06/10 01:58:36;;;;;;;13.43;9.05;;;;;;;16.82;86.59;100765.91;6027629;23;20606;-70
2023/06/10 02:01:03;;;;;;;9.38;8.57;;;;;;;16.82;86.98;100764.13;6051719;23;20034;-70
2023/06/10 02:03:29;;;;;;;9.63;8.75;;;;;;;16.32;86.25;100690.19;6028331;23;20017;-70
2023/06/10 02:05:56;;;;;;;9.50;8.45;;;;;;;16.77;86.78;100770.72;6056054;23;20058;-70
2023/06/10 02:08:22;;;;;;;8.85;8.15;;;;;;;16.40;87.01;100717.88;6024709;23;20110;-70
2023/06/10 02:10:49;;;;;;;9.90;8.93;;;;;;;16.71;87.15;100772.88;6053456;23;20030;-70
2023/06/10 02:13:15;;;;;;;11.02;8.85;;;;;;;16.69;87.02;100764.19;6027746;23;20086;-70
2023/06/10 02:15:41;;;;;;;9.10;8.40;;;;;;;16.68;87.70;100765.16;6055736;23;20029;-70
2023/06/10 02:18:09;;;;;;;9.45;8.65;;;;;;;16.50;87.80;100737.44;6026622;23;20442;-70
2023/06/10 02:20:35;;;;;;;10.07;8.55;;;;;;;16.67;87.57;100762.63;6054617;23;20014;-70
2023/06/10 02:23:02;;;;;;;13.90;8.52;;;;;;;16.62;86.69;100780.66;6024805;23;20023;-70
2023/06/10 02:25:28;;;;;;;8.75;8.05;;;;;;;16.59;87.73;100771.16;6027800;23;20030;-70
2023/06/10 02:27:55;;;;;;;8.73;8.02;;;;;;;16.57;87.64;100781.03;6024681;23;20614;-70
2023/06/10 02:30:21;;;;;;;9.70;8.73;;;;;;;16.24;87.42;100731.47;6053207;23;20128;-70
2023/06/10 02:32:48;;;;;;;10.30;9.30;;;;;;;16.48;87.56;100790.53;6026310;23;20029;-69
2023/06/10 02:35:15;;;;;;;9.15;8.35;;;;;;;16.35;87.41;100768.56;6030306;23;20044;-70
2023/06/10 02:37:42;;;;;;;9.32;8.43;;;;;;;16.01;87.30;100731.38;6026408;23;20035;-70
2023/06/10 02:40:10;;;;;;;9.40;8.50;;;;;;;16.33;87.70;100799.63;6053033;23;20105;-70
2023/06/10 02:42:36;;;;;;;8.98;8.07;;;;;;;15.92;87.68;100745.31;6004257;23;20141;-70
2023/06/10 02:45:03;;;;;;;12.35;8.90;;;;;;;16.11;88.86;100805.66;6053451;23;20026;-70
2023/06/10 02:47:30;;;;;;;9.15;8.32;;;;;;;15.66;90.15;100747.19;6026046;23;20736;-70
2023/06/10 02:49:56;;;;;;;8.73;8.02;;;;;;;16.02;91.62;100822.25;6029397;23;20133;-70
2023/06/10 02:52:23;;;;;;;9.43;8.52;;;;;;;16.03;92.73;100818.63;6054926;23;20026;-70
2023/06/10 02:54:49;;;;;;;10.30;9.07;;;;;;;16.05;92.93;100814.06;6027287;23;20085;-70
2023/06/10 02:57:16;;;;;;;8.68;7.97;;;;;;;16.00;92.98;100818.88;6022423;23;20023;-70
2023/06/10 02:59:42;;;;;;;9.45;8.48;;;;;;;15.99;93.63;100822.44;6053043;23;20052;-70
2023/06/10 03:02:11;;;;;;;9.07;8.27;;;;;;;15.94;92.83;100815.69;6024870;23;20019;-70
2023/06/10 03:04:38;;;;;;;9.18;8.38;;;;;;;16.00;92.96;100829.44;6056396;23;20036;-71
2023/06/10 03:07:07;;;;;;;9.45;8.55;;;;;;;15.99;93.84;100833.03;6020075;23;20019;-70
2023/06/10 03:09:33;;;;;;;9.20;8.40;;;;;;;16.02;93.24;100828.38;6027064;23;20094;-70
2023/06/10 03:12:00;;;;;;;11.27;8.77;;;;;;;16.01;93.12;100825.84;6029984;23;20097;-70
2023/06/10 03:14:27;;;;;;;8.77;7.95;;;;;;;15.85;92.75;100800.47;6057376;23;20029;-70
2023/06/10 03:16:54;;;;;;;10.27;8.93;;;;;;;15.91;93.37;100820.34;6025316;23;20026;-70
2023/06/10 03:19:23;;;;;;;9.27;8.38;;;;;;;15.98;93.29;100842.78;6034589;23;20030;-68
2023/06/10 03:22:06;;;;;;;9.45;8.55;;;;;;;15.92;93.01;100849.38;6024399;23;20053;-70
2023/06/10 03:24:32;;;;;;;9.50;8.57;;;;;;;15.98;93.00;100841.94;6019054;23;20106;-70
2023/06/10 03:27:00;;;;;;;10.25;9.20;;;;;;;16.00;92.80;100850.63;6050627;23;20535;-69
2023/06/10 03:29:26;;;;;;;8.88;8.18;;;;;;;16.00;92.93;100846.16;6023074;23;21308;-69
2023/06/10 03:31:53;;;;;;;9.38;8.32;;;;;;;15.97;92.62;100849.03;6023637;23;20047;-69
2023/06/10 03:34:19;;;;;;;8.95;8.15;;;;;;;15.91;92.63;100846.81;6058510;23;20419;-69
2023/06/10 03:36:46;;;;;;;12.55;8.75;;;;;;;15.86;93.28;100852.47;6029074;23;20023;-69
2023/06/10 03:39:12;;;;;;;9.77;8.70;;;;;;;15.90;93.39;100866.31;6058085;23;20018;-69
2023/06/10 03:41:39;;;;;;;9.43;8.45;;;;;;;15.71;93.70;100827.88;6027794;23;20137;-68
2023/06/10 03:44:05;;;;;;;9.43;8.63;;;;;;;16.00;94.41;100869.16;6057973;23;20013;-68
2023/06/10 03:46:31;;;;;;;9.55;8.65;;;;;;;16.01;93.92;100878.78;6029533;23;20731;-68
2023/06/10 03:49:00;;;;;;;8.68;7.97;;;;;;;16.05;94.64;100875.78;6060225;23;20030;-68
2023/06/10 03:51:27;;;;;;;9.93;8.93;;;;;;;16.08;93.70;100883.53;6028626;23;20030;-68
2023/06/10 03:53:53;;;;;;;10.15;9.15;;;;;;;16.05;94.39;100885.53;6055010;23;20049;-68
2023/06/10 03:56:20;;;;;;;9.70;8.90;;;;;;;16.08;94.65;100888.81;6029303;23;20021;-68
2023/06/10 03:58:46;;;;;;;9.45;8.55;;;;;;;16.14;93.64;100883.06;6054981;23;20034;-68
2023/06/10 04:01:13;;;;;;;9.73;8.82;;;;;;;15.65;93.29;100791.28;6027286;23;20090;-68
2023/06/10 04:03:41;;;;;;;9.95;9.05;;;;;;;16.28;93.14;100884.72;6056880;23;20026;-69
2023/06/10 04:06:07;;;;;;;9.73;8.88;;;;;;;16.26;92.67;100894.56;6026613;23;20073;-68
2023/06/10 04:08:35;;;;;;;8.52;7.72;;;;;;;16.50;92.22;100891.94;6027416;23;20688;-68
2023/06/10 04:11:02;;;;;;;9.05;8.23;;;;;;;17.17;91.12;100898.44;6026921;23;20034;-68
2023/06/10 04:13:28;;;;;;;9.32;8.52;;;;;;;17.68;88.27;100886.50;6052319;23;20356;-68
2023/06/10 04:15:55;;;;;;;9.77;8.98;;;;;;;18.38;84.85;100888.00;6005061;23;20015;-68
2023/06/10 04:18:24;;;;;;;13.23;9.65;;;;;;;18.48;80.99;100811.00;6056854;23;20030;-68
2023/06/10 04:20:50;;;;;;;9.85;8.95;;;;;;;19.38;77.46;100862.81;6025736;23;20037;-68
2023/06/10 04:23:17;;;;;;;13.20;9.65;;;;;;;19.57;74.86;100800.81;6055019;23;20022;-69
2023/06/10 04:25:43;;;;;;;10.15;8.93;;;;;;;20.36;72.72;100848.75;6029016;23;20051;-68
2023/06/10 04:28:10;;;;;;;10.13;9.15;;;;;;;20.10;70.20;100760.53;6052894;23;20643;-69
2023/06/10 04:30:36;;;;;;;17.17;9.75;;;;;;;20.65;68.99;100802.63;6028452;23;20022;-68
2023/06/10 04:33:02;;;;;;;8.90;8.15;;;;;;;21.06;68.40;100808.56;6026038;23;20059;-69
2023/06/10 04:35:29;;;;;;;9.73;8.73;;;;;;;21.46;67.25;100800.25;6028744;23;20032;-69
2023/06/10 04:37:56;;;;;;;8.90;8.27;;;;;;;21.82;65.50;100791.47;6055102;23;20022;-69
2023/06/10 04:40:22;;;;;;;10.32;9.32;;;;;;;21.92;64.62;100730.78;6028931;23;20101;-70
2023/06/10 04:42:49;;;;;;;9.35;8.60;;;;;;;22.52;63.59;100756.03;6055320;23;20051;-69
2023/06/10 04:45:15;;;;;;;9.45;8.65;;;;;;;22.56;61.97;100726.13;6027026;23;20469;-70
2023/06/10 04:47:42;;;;;;;9.75;8.85;;;;;;;22.73;61.44;100727.06;6054422;23;20093;-69
2023/06/10 04:50:09;;;;;;;9.65;8.73;;;;;;;22.97;60.89;100730.88;6026801;23;20027;-69
2023/06/10 04:52:35;;;;;;;9.85;8.98;;;;;;;23.35;60.95;100728.72;6055675;23;20018;-69
2023/06/10 04:55:02;;;;;;;10.48;9.45;;;;;;;23.18;59.18;100666.25;6027654;23;20037;-70
2023/06/10 04:57:28;;;;;;;9.27;8.48;;;;;;;23.67;58.63;100709.19;6054062;23;20029;-69
2023/06/10 04:59:54;;;;;;;10.02;9.15;;;;;;;23.32;57.73;100619.25;6027023;23;20038;-69
2023/06/10 05:02:21;;;;;;;10.40;9.30;;;;;;;23.60;57.80;100655.44;6055034;23;20926;-69
2023/06/10 05:04:47;;;;;;;9.20;8.40;;;;;;;23.48;57.66;100587.13;6029264;23;20049;-69
2023/06/10 05:07:14;;;;;;;9.13;8.43;;;;;;;23.88;56.46;100618.44;6056383;23;21286;-69
2023/06/10 05:09:40;;;;;;;9.32;8.45;;;;;;;23.50;57.01;100622.63;6028572;23;20019;-69
2023/06/10 05:12:08;;;;;;;9.48;8.75;;;;;;;23.55;56.85;100603.34;6027342;23;20014;-70
2023/06/10 05:14:35;;;;;;;9.20;8.50;;;;;;;24.84;56.11;100686.50;6031719;23;20042;-69
2023/06/10 05:17:01;;;;;;;10.05;9.20;;;;;;;25.16;53.84;100622.91;6025368;23;20030;-70
2023/06/10 05:19:28;;;;;;;8.85;8.15;;;;;;;25.19;53.46;100616.34;6055499;23;20622;-70
2023/06/10 05:21:54;;;;;;;9.70;8.93;;;;;;;25.37;52.49;100592.72;6001027;23;20029;-68
2023/06/10 05:24:21;;;;;;;9.68;8.90;;;;;;;24.80;52.65;100572.44;6028617;23;20093;-68
2023/06/10 05:26:48;;;;;;;11.02;8.75;;;;;;;25.31;53.04;100633.75;6053782;23;20038;-68
2023/06/10 05:29:17;;;;;;;10.73;9.27;;;;;;;25.60;51.87;100606.16;6027141;23;20508;-68
2023/06/10 05:31:44;;;;;;;9.48;8.77;;;;;;;25.62;51.21;100590.69;6056278;23;20011;-68
2023/06/10 05:34:10;;;;;;;9.73;8.93;;;;;;;25.78;51.67;100627.34;6027868;23;20504;-68
2023/06/10 05:36:37;;;;;;;9.32;8.60;;;;;;;26.11;49.88;100613.63;6058604;23;20027;-70
2023/06/10 05:39:04;;;;;;;9.10;8.40;;;;;;;26.69;49.20;100616.50;6028522;23;20042;-70
2023/06/10 05:41:32;;;;;;;8.98;8.18;;;;;;;26.90;48.27;100587.97;6054806;23;20051;-69
2023/06/10 05:43:58;;;;;;;9.60;8.70;;;;;;;26.74;47.33;100527.09;6027157;23;20073;-70
2023/06/10 05:46:25;;;;;;;10.00;9.20;;;;;;;26.26;47.61;100506.03;6053010;23;20033;-70
2023/06/10 05:48:51;;;;;;;8.93;8.20;;;;;;;26.67;47.81;100600.53;6026059;23;20034;-68
2023/06/10 05:51:18;;;;;;;9.10;8.40;;;;;;;26.53;47.92;100582.53;6027770;23;20030;-69
2023/06/10 05:53:46;;;;;;;9.20;8.40;;;;;;;27.14;47.12;100627.19;6056212;23;20030;-68
2023/06/10 05:56:14;;;;;;;9.60;8.80;;;;;;;27.16;46.44;100549.69;6025169;23;20035;-70
2023/06/10 05:58:40;;;;;;;8.60;7.93;;;;;;;28.02;45.12;100635.91;6027471;23;20015;-70
2023/06/10 06:01:07;;;;;;;10.27;8.95;;;;;;;27.55;45.30;100529.56;6024736;23;20115;-69
2023/06/10 06:03:33;;;;;;;9.35;8.45;;;;;;;27.49;46.44;100622.81;6057281;23;20025;-70
2023/06/10 06:06:00;;;;;;;10.05;9.10;;;;;;;27.49;45.90;100613.91;6027153;23;20035;-69
2023/06/10 06:08:26;;;;;;;9.93;8.40;;;;;;;28.08;46.12;100681.00;6057070;23;20283;-70
2023/06/10 06:10:53;;;;;;;11.02;9.60;;;;;;;27.66;45.61;100615.28;6029092;23;20089;-69
2023/06/10 06:13:19;;;;;;;10.95;10.10;;;;;;;28.19;46.32;100693.13;6029745;23;20533;-69
2023/06/10 06:15:45;;;;;;;9.90;9.10;;;;;;;28.33;45.34;100683.28;6028034;23;20031;-69
2023/06/10 06:18:12;;;;;;;8.98;8.38;;;;;;;28.62;45.18;100669.56;6054593;23;20033;-69
2023/06/10 06:20:38;;;;;;;9.18;8.48;;;;;;;28.99;43.85;100662.03;6028966;23;20115;-68
2023/06/10 06:23:05;;;;;;;10.23;8.80;;;;;;;29.11;43.34;100638.00;6053074;23;20010;-69
2023/06/10 06:25:31;;;;;;;10.27;9.40;;;;;;;28.40;44.31;100606.69;6024492;23;20018;-69
2023/06/10 06:27:58;;;;;;;9.68;8.73;;;;;;;27.91;45.76;100634.59;6052615;23;20737;-69
2023/06/10 06:30:24;;;;;;;10.20;8.32;;;;;;;27.58;45.97;100616.28;6027301;23;20672;-69
2023/06/10 06:32:51;;;;;;;8.93;8.13;;;;;;;26.43;46.37;100483.25;6054825;23;20527;-69
2023/06/10 06:35:18;;;;;;;9.20;8.40;;;;;;;26.42;47.11;100558.78;6026025;23;20097;-69
2023/06/10 06:37:45;;;;;;;9.82;8.93;;;;;;;26.01;47.71;100557.41;6025430;23;20665;-69
2023/06/10 06:40:11;;;;;;;9.60;8.75;;;;;;;25.84;48.48;100588.97;6052376;23;20616;-69
2023/06/10 06:42:38;;;;;;;8.95;8.15;;;;;;;25.70;47.12;100540.56;6026785;23;20030;-70
2023/06/10 06:45:05;;;;;;;9.70;8.90;;;;;;;25.57;47.70;100551.94;6021425;23;20085;-67
2023/06/10 06:47:31;;;;;;;8.90;8.20;;;;;;;25.53;47.21;100542.56;6031550;23;20112;-67
2023/06/10 06:49:58;;;;;;;9.15;8.35;;;;;;;25.13;48.10;100537.31;6025254;23;20542;-67
2023/06/10 06:52:24;;;;;;;9.10;8.40;;;;;;;25.03;46.97;100501.81;6055256;23;20607;-67
2023/06/10 06:54:53;;;;;;;9.52;8.60;;;;;;;25.34;47.82;100590.41;6026598;23;20057;-67
2023/06/10 06:57:20;;;;;;;9.05;8.35;;;;;;;25.34;47.34;100551.94;6048773;23;20033;-67
2023/06/10 06:59:46;;;;;;;9.45;8.65;;;;;;;25.28;46.83;100508.69;6026091;23;20026;-67
2023/06/10 07:02:12;;;;;;;8.73;7.82;;;;;;;25.36;46.88;100547.22;6048918;23;20085;-67
2023/06/10 07:04:40;;;;;;;9.15;8.35;;;;;;;25.01;47.89;100533.38;6027352;23;20027;-67
2023/06/10 07:07:10;;;;;;;9.40;8.50;;;;;;;25.32;47.68;100591.59;6051930;23;20084;-67
2023/06/10 07:09:38;;;;;;;9.50;8.57;;;;;;;25.20;46.79;100538.28;6019261;23;20010;-67
2023/06/10 07:12:05;;;;;;;8.75;8.15;;;;;;;25.12;46.81;100516.00;6058605;23;20015;-67
2023/06/10 07:14:31;;;;;;;8.82;8.05;;;;;;;24.94;46.63;100492.13;6027075;23;20536;-67
2023/06/10 07:16:58;;;;;;;10.40;8.13;;;;;;;25.27;47.35;100605.56;6027172;23;20443;-67
2023/06/10 07:19:27;;;;;;;8.80;8.02;;;;;;;24.54;47.12;100480.69;6057403;23;20045;-68
2023/06/10 07:21:53;;;;;;;8.70;7.90;;;;;;;25.26;46.55;100524.16;6028035;23;20097;-68
2023/06/10 07:24:20;;;;;;;9.27;8.57;;;;;;;25.47;46.45;100563.75;6027547;23;20051;-68
2023/06/10 07:26:46;;;;;;;8.88;8.00;;;;;;;25.71;46.09;100574.50;6032718;23;20023;-67
2023/06/10 07:29:13;;;;;;;9.55;8.50;;;;;;;25.84;45.22;100532.53;6056064;23;20037;-68
2023/06/10 07:31:41;;;;;;;8.25;7.65;;;;;;;25.92;44.74;100530.78;6028913;23;20029;-68
2023/06/10 07:34:08;;;;;;;8.88;7.97;;;;;;;25.72;44.96;100509.81;6027032;23;20030;-68
2023/06/10 07:36:34;;;;;;;8.45;7.75;;;;;;;25.85;45.10;100536.88;6029182;23;20034;-68
2023/06/10 07:39:00;;;;;;;8.52;7.70;;;;;;;25.51;44.67;100485.47;6055425;23;20022;-68
2023/06/10 07:41:27;;;;;;;8.52;7.88;;;;;;;25.65;45.00;100528.50;6027022;23;20597;-68
2023/06/10 07:43:54;;;;;;;9.60;8.60;;;;;;;25.65;44.44;100506.16;6054317;23;20024;-68
2023/06/10 07:46:22;;;;;;;8.82;8.13;;;;;;;25.72;44.93;100525.94;6027549;23;20038;-68
2023/06/10 07:48:49;;;;;;;8.23;7.53;;;;;;;25.67;44.36;100501.44;6058446;23;20019;-68
2023/06/10 07:51:16;;;;;;;8.63;7.93;;;;;;;25.93;46.35;100650.78;6029583;23;20033;-69
2023/06/10 07:53:43;;;;;;;8.52;7.82;;;;;;;25.98;45.03;100551.53;6030479;23;20046;-68
2023/06/10 07:56:09;;;;;;;9.45;8.55;;;;;;;26.07;44.71;100561.22;6054489;23;20035;-68
2023/06/10 07:58:36;;;;;;;7.65;7.15;;;;;;;26.10;45.03;100606.56;6029810;23;20086;-68
2023/06/10 08:01:02;;;;;;;8.98;8.20;;;;;;;26.19;43.72;100543.59;6057495;23;20030;-66
2023/06/10 08:03:28;;;;;;;9.15;8.38;;;;;;;26.48;42.85;100520.38;6030430;23;20011;-68
2023/06/10 08:05:55;;;;;;;9.75;7.97;;;;;;;26.52;43.14;100521.66;6057263;23;20038;-68
2023/06/10 08:08:21;;;;;;;9.02;8.00;;;;;;;26.21;43.97;100538.84;6027598;23;20030;-68
2023/06/10 08:10:49;;;;;;;8.95;7.55;;;;;;;25.98;43.69;100484.31;6057918;23;20094;-68
2023/06/10 08:13:15;;;;;;;8.30;7.60;;;;;;;26.21;43.23;100528.09;6029004;23;20520;-68
2023/06/10 08:15:42;;;;;;;8.75;8.02;;;;;;;26.37;42.53;100502.00;6057566;23;20062;-68
2023/06/10 08:18:08;;;;;;;8.98;8.07;;;;;;;26.47;41.98;100459.50;6028655;23;20031;-68
2023/06/10 08:20:35;;;;;;;8.75;8.05;;;;;;;26.45;42.14;100500.03;6028053;23;20046;-68
2023/06/10 08:23:01;;;;;;;8.75;8.00;;;;;;;26.15;41.99;100444.63;6034033;23;20086;-69
2023/06/10 08:25:28;;;;;;;9.23;8.10;;;;;;;26.56;42.50;100519.41;6059208;23;20848;-68
2023/06/10 08:27:56;;;;;;;8.75;8.05;;;;;;;26.76;42.09;100525.03;6029468;23;20082;-69
2023/06/10 08:30:23;;;;;;;9.30;8.50;;;;;;;26.31;42.25;100465.94;6055072;23;20018;-70
2023/06/10 08:32:52;;;;;;;8.15;7.53;;;;;;;26.47;42.51;100535.66;6025417;23;20030;-69
2023/06/10 08:35:19;;;;;;;8.57;7.68;;;;;;;26.22;41.78;100443.69;6055039;23;20050;-70
2023/06/10 08:37:45;;;;;;;7.85;7.30;;;;;;;26.80;41.60;100529.88;6024918;23;20030;-69
2023/06/10 08:40:12;;;;;;;8.82;8.13;;;;;;;26.61;41.48;100471.25;6032435;23;20018;-69
2023/06/10 08:42:58;;;;;;;8.13;7.50;;;;;;;26.72;43.00;100582.97;6030255;23;20254;-70
2023/06/10 08:45:31;;;;;;;8.60;7.90;;;;;;;27.29;42.08;100605.63;6058493;23;20402;-68
2023/06/10 08:47:58;;;;;;;8.60;7.90;;;;;;;27.14;40.97;100495.16;6030259;23;20026;-68
2023/06/10 08:50:26;;;;;;;8.85;8.15;;;;;;;27.10;40.99;100485.81;6043385;23;20018;-68
2023/06/10 08:52:57;;;;;;;8.82;8.02;;;;;;;26.98;41.36;100501.66;6033926;23;20014;-68
2023/06/10 08:55:30;;;;;;;9.25;8.45;;;;;;;27.02;40.96;100502.94;6031669;23;20504;-68
2023/06/10 08:58:02;;;;;;;8.75;7.95;;;;;;;27.35;40.40;100524.00;6028473;23;20102;-68
2023/06/10 09:00:30;;;;;;;8.63;7.93;;;;;;;27.69;40.29;100568.25;6028387;23;20019;-68
2023/06/10 09:02:58;;;;;;;9.27;8.50;;;;;;;27.49;39.66;100498.00;6051322;23;20129;-68
2023/06/10 09:05:33;;;;;;;8.40;7.80;;;;;;;27.53;39.81;100488.47;6028524;23;20023;-68
2023/06/10 09:08:00;;;;;;;9.18;8.48;;;;;;;27.75;39.06;100497.34;6028233;23;20376;-68
2023/06/10 09:10:26;;;;;;;9.18;8.25;;;;;;;27.71;40.15;100523.84;6057360;23;20032;-68
2023/06/10 09:12:53;;;;;;;8.43;7.85;;;;;;;27.51;39.47;100471.69;6030232;23;20030;-68
2023/06/10 09:15:20;;;;;;;8.57;7.78;;;;;;;27.36;39.99;100472.63;6058745;23;20042;-70
2023/06/10 09:17:46;;;;;;;8.93;8.23;;;;;;;27.44;40.43;100547.06;6024836;23;20030;-69
2023/06/10 09:20:13;;;;;;;9.07;8.18;;;;;;;27.76;40.58;100604.16;6034424;23;20085;-68
2023/06/10 09:22:42;;;;;;;8.48;7.78;;;;;;;28.14;39.90;100612.75;6006191;23;20033;-69
2023/06/10 09:25:11;;;;;;;9.02;8.25;;;;;;;28.11;39.02;100518.75;6029969;23;20720;-68
2023/06/10 09:27:50;;;;;;;8.27;7.63;;;;;;;27.95;39.47;100519.06;6029179;23;20040;-68
2023/06/10 09:30:25;;;;;;;9.02;8.32;;;;;;;28.31;39.77;100594.41;6053646;23;20014;-69
2023/06/10 09:32:54;;;;;;;8.68;7.88;;;;;;;28.47;38.52;100536.53;6026588;23;20034;-68
2023/06/10 09:35:20;;;;;;;8.93;8.13;;;;;;;28.29;39.19;100526.28;6056776;23;20026;-68
2023/06/10 09:37:51;;;;;;;8.75;7.97;;;;;;;28.14;38.66;100526.41;6028370;23;20030;-68
2023/06/10 09:40:17;;;;;;;10.65;8.05;;;;;;;28.39;38.98;100571.81;6027252;23;20019;-69
2023/06/10 09:42:44;;;;;;;8.75;8.05;;;;;;;28.61;39.02;100568.00;6051421;23;20006;-70
2023/06/10 09:45:11;;;;;;;8.85;8.15;;;;;;;28.70;38.67;100560.53;6002547;23;20034;-69
2023/06/10 09:47:37;;;;;;;9.15;8.38;;;;;;;28.77;38.30;100556.00;6027195;23;20026;-69
2023/06/10 09:50:04;;;;;;;8.85;8.05;;;;;;;27.95;38.25;100413.88;6057085;23;21474;-69
2023/06/10 09:52:33;;;;;;;9.27;8.38;;;;;;;28.63;38.08;100501.13;6027193;23;20035;-69
2023/06/10 09:55:01;;;;;;;8.82;7.93;;;;;;;29.02;38.48;100610.28;6027681;23;20053;-69
2023/06/10 09:57:33;;;;;;;8.70;8.00;;;;;;;28.57;37.06;100420.94;6054730;23;20022;-68
2023/06/10 10:00:08;;;;;;;9.48;8.68;;;;;;;29.50;37.21;100558.00;6000841;23;20037;-68
2023/06/10 10:02:49;;;;;;;9.57;8.77;;;;;;;28.78;37.83;100471.22;6053914;23;20042;-68
2023/06/10 10:05:18;;;;;;;9.60;8.80;;;;;;;28.78;37.17;100467.69;6032920;23;20573;-67
2023/06/10 10:07:46;;;;;;;9.07;8.30;;;;;;;29.40;37.84;100615.19;6032086;23;20022;-69
2023/06/10 10:10:14;;;;;;;9.38;8.00;;;;;;;29.59;36.88;100558.63;6038530;23;20021;-68
2023/06/10 10:12:41;;;;;;;9.05;8.25;;;;;;;29.62;36.39;100521.16;6028808;23;20346;-68
2023/06/10 10:15:11;;;;;;;8.88;8.18;;;;;;;29.62;36.77;100514.94;6026756;23;20018;-70
2023/06/10 10:17:52;;;;;;;8.68;8.07;;;;;;;30.06;36.74;100618.13;6054921;23;20023;-69
2023/06/10 10:20:25;;;;;;;9.40;8.48;;;;;;;29.52;37.16;100488.31;6028810;23;20042;-70
2023/06/10 10:22:54;;;;;;;8.32;7.68;;;;;;;30.13;36.73;100627.06;6054932;23;20011;-69
2023/06/10 10:25:28;;;;;;;8.90;8.20;;;;;;;30.60;36.17;100636.75;6027204;23;20069;-70
2023/06/10 10:28:05;;;;;;;9.30;8.50;;;;;;;29.52;37.21;100498.31;6056235;23;20034;-69
2023/06/10 10:30:39;;;;;;;9.23;8.13;;;;;;;29.46;36.25;100443.19;6028503;23;20023;-69
2023/06/10 10:33:33;;;;;;;9.45;8.70;;;;;;;29.98;36.82;100565.06;6022330;23;20541;-70
2023/06/10 10:36:00;;;;;;;8.95;8.15;;;;;;;29.59;37.00;100483.75;6057255;23;20041;-69
2023/06/10 10:38:28;;;;;;;9.40;8.60;;;;;;;30.03;37.52;100603.97;6026877;23;20457;-69
2023/06/10 10:40:59;;;;;;;8.85;8.10;;;;;;;29.76;35.26;100446.25;6026119;23;20039;-69
2023/06/10 10:43:28;;;;;;;9.15;8.27;;;;;;;30.82;35.33;100574.16;6026019;23;20042;-69
2023/06/10 10:46:01;;;;;;;8.82;8.02;;;;;;;31.87;34.50;100636.03;6039508;23;20525;-70
2023/06/10 10:48:34;;;;;;;8.55;7.93;;;;;;;32.47;33.60;100649.03;6058818;23;20078;-69
2023/06/10 10:51:01;;;;;;;9.02;8.27;;;;;;;32.22;33.58;100580.41;6030390;23;20022;-70
2023/06/10 10:53:27;;;;;;;10.73;9.07;;;;;;;31.73;34.30;100525.94;6028311;23;20038;-68
2023/06/10 10:56:06;;;;;;;8.68;7.97;;;;;;;31.04;35.71;100530.47;6030310;23;20022;-68
2023/06/10 10:58:33;;;;;;;9.10;8.40;;;;;;;30.15;36.74;100498.59;6058070;23;20010;-68
2023/06/10 11:01:10;;;;;;;9.45;8.55;;;;;;;30.13;37.17;100502.53;6030620;23;20033;-68
2023/06/10 11:03:44;;;;;;;8.95;8.30;;;;;;;29.30;39.79;100539.06;6029238;23;20038;-68
2023/06/10 11:06:15;;;;;;;9.75;8.95;;;;;;;29.69;39.35;100580.69;6028641;23;20029;-69
2023/06/10 11:08:42;;;;;;;9.18;8.48;;;;;;;29.12;39.41;100501.00;6057148;23;20049;-68
2023/06/10 11:11:26;;;;;;;9.40;8.70;;;;;;;28.89;40.03;100531.94;6029985;23;20101;-68
2023/06/10 11:14:02;;;;;;;9.77;8.60;;;;;;;28.54;40.63;100501.50;6058676;23;20007;-68
2023/06/10 11:16:28;;;;;;;8.98;8.18;;;;;;;28.10;41.11;100484.69;6031238;23;20113;-67
2023/06/10 11:18:56;;;;;;;9.02;8.27;;;;;;;28.38;40.02;100492.69;6057002;23;20602;-68
2023/06/10 11:21:24;;;;;;;9.35;8.55;;;;;;;28.64;39.12;100497.34;6029774;23;20525;-69
2023/06/10 11:23:58;;;;;;;8.90;8.20;;;;;;;28.75;40.49;100551.84;6057632;23;20055;-68
2023/06/10 11:26:34;;;;;;;8.85;8.05;;;;;;;29.72;38.87;100601.91;6029539;23;20026;-68
2023/06/10 11:29:03;;;;;;;9.20;8.40;;;;;;;29.93;36.25;100489.94;6028832;23;20837;-68